Time;durP1;ratioP1;P1;durP2;ratioP2;P2;SDS_P1;SDS_P2;PMS_P1;PMS_P2;Temp;Humidity;BMP_temperature;BMP_pressure;BME280_temperature;BME280_humidity;BME280_pressure;Samples;Min_cycle;Max_cycle;Signal;HPM_P1;HPM_P2
2023/10/07 00:02:18;;;;;;;9.10;2.03;;;;;;;12.06;100.00;100981.69;5130670;27;20104;-66
2023/10/07 00:04:45;;;;;;;10.70;1.98;;;;;;;12.05;100.00;100980.81;5126848;27;20047;-65
2023/10/07 00:07:12;;;;;;;10.40;2.50;;;;;;;11.99;100.00;100965.31;5123508;27;20550;-66
2023/10/07 00:09:43;;;;;;;14.00;2.72;;;;;;;11.93;100.00;100989.16;5122614;27;20051;-67
2023/10/07 00:12:19;;;;;;;14.80;3.45;;;;;;;11.93;100.00;100981.28;5125209;27;20047;-66
2023/10/07 00:14:45;;;;;;;13.55;3.50;;;;;;;11.98;100.00;100987.22;5116950;27;20082;-66
2023/10/07 00:17:21;;;;;;;12.88;2.40;;;;;;;11.88;100.00;100965.72;5120817;27;20050;-66
2023/10/07 00:19:48;;;;;;;11.52;2.95;;;;;;;11.89;100.00;100979.69;5115238;27;20040;-68
2023/10/07 00:22:19;;;;;;;10.90;2.47;;;;;;;11.94;100.00;100983.00;5123816;27;20047;-66
2023/10/07 00:24:48;;;;;;;13.15;2.72;;;;;;;11.83;100.00;100972.03;5113418;27;20055;-67
2023/10/07 00:27:30;;;;;;;16.48;2.88;;;;;;;11.92;100.00;100975.19;5114595;27;20050;-66
2023/10/07 00:29:59;;;;;;;11.90;2.35;;;;;;;12.05;100.00;100991.31;5121849;27;20051;-66
2023/10/07 00:32:32;;;;;;;14.48;3.17;;;;;;;12.03;100.00;100990.50;5127927;27;20054;-66
2023/10/07 00:35:00;;;;;;;14.63;2.95;;;;;;;11.99;100.00;100996.81;5126778;27;20397;-66
2023/10/07 00:37:33;;;;;;;11.05;2.17;;;;;;;11.95;100.00;101000.44;5124527;27;20039;-66
2023/10/07 00:40:07;;;;;;;11.00;2.10;;;;;;;12.03;100.00;100998.38;5124269;27;20050;-66
2023/10/07 00:42:34;;;;;;;17.33;2.55;;;;;;;11.93;100.00;100991.78;5121571;27;20058;-67
2023/10/07 00:45:12;;;;;;;12.88;3.25;;;;;;;11.71;100.00;100999.63;5136862;27;20082;-66
2023/10/07 00:47:40;;;;;;;8.45;2.33;;;;;;;11.78;100.00;101009.81;5144552;27;20054;-66
2023/10/07 00:50:10;;;;;;;13.48;2.38;;;;;;;11.74;100.00;100989.00;5123217;27;20107;-66
2023/10/07 00:52:55;;;;;;;12.00;2.30;;;;;;;11.81;100.00;100993.09;5148866;27;20513;-67
2023/10/07 00:55:34;;;;;;;9.88;2.40;;;;;;;11.76;100.00;100993.28;5143750;27;20092;-66
2023/10/07 00:58:27;;;;;;;11.90;2.58;;;;;;;11.66;100.00;100991.06;5138834;27;20096;-67
2023/10/07 01:00:49;;;;;;;9.05;2.58;;;;;;;11.74;100.00;101000.34;5131046;27;20089;-66
2023/10/07 01:08:35;;;;;;;;;;;;;;;11.73;100.00;101001.25;5128691;27;20469;-66
2023/10/07 01:13:56;;;;;;;14.70;2.25;;;;;;;11.48;100.00;100988.22;5124995;27;20135;-67
2023/10/07 01:21:56;;;;;;;15.18;2.80;;;;;;;11.26;100.00;100980.31;5137671;27;20058;-66
2023/10/07 01:24:45;;;;;;;14.20;2.20;;;;;;;11.37;100.00;100995.63;5130592;27;20509;-66
2023/10/07 01:29:59;;;;;;;16.40;2.28;;;;;;;11.47;100.00;101001.38;5135923;27;20047;-66
2023/10/07 01:32:32;;;;;;;20.30;2.58;;;;;;;11.33;100.00;100963.44;5134473;27;20043;-66
2023/10/07 01:35:05;;;;;;;13.05;2.20;;;;;;;11.36;100.00;100976.41;5152031;27;20046;-66
2023/10/07 01:37:41;;;;;;;11.52;2.67;;;;;;;11.42;100.00;100969.22;5129007;27;20043;-66
2023/10/07 01:40:16;;;;;;;12.25;2.22;;;;;;;11.47;100.00;100980.41;5134427;27;20049;-66
2023/10/07 01:42:44;;;;;;;9.40;1.77;;;;;;;11.47;100.00;100976.00;5131649;27;20770;-67
2023/10/07 01:45:20;;;;;;;12.25;1.85;;;;;;;11.46;100.00;100982.19;5133250;27;20043;-66
2023/10/07 01:47:49;;;;;;;13.07;2.95;;;;;;;11.43;100.00;100989.31;5127516;27;20078;-66
2023/10/07 01:50:18;;;;;;;9.80;2.40;;;;;;;11.41;100.00;100994.59;5143960;27;20088;-66
2023/10/07 01:52:48;;;;;;;16.17;3.13;;;;;;;11.38;100.00;100998.19;5128381;27;20043;-66
2023/10/07 01:55:16;;;;;;;11.25;2.45;;;;;;;11.37;100.00;100996.47;5122355;27;20053;-67
2023/10/07 01:57:44;;;;;;;17.52;2.80;;;;;;;11.20;100.00;100999.69;5133924;27;20130;-66
2023/10/07 02:00:12;;;;;;;24.60;4.93;;;;;;;11.21;100.00;101011.91;5128865;27;20039;-66
2023/10/07 02:02:48;;;;;;;13.77;2.60;;;;;;;11.25;100.00;101024.91;5130321;27;20057;-66
2023/10/07 02:05:16;;;;;;;13.15;3.17;;;;;;;11.20;100.00;101022.44;5129638;27;20043;-66
2023/10/07 02:07:46;;;;;;;15.38;2.55;;;;;;;11.19;100.00;101026.84;5125306;27;20052;-67
2023/10/07 02:10:23;;;;;;;12.68;3.40;;;;;;;11.31;100.00;101025.53;5127444;27;20473;-66
2023/10/07 02:12:52;;;;;;;13.90;2.95;;;;;;;11.33;100.00;101020.22;5129360;28;20480;-66
2023/10/07 02:15:19;;;;;;;17.73;3.90;;;;;;;11.17;100.00;101033.03;5129833;27;20130;-67
2023/10/07 02:17:47;;;;;;;11.48;2.72;;;;;;;11.20;100.00;101033.78;5124010;28;20481;-66
2023/10/07 02:20:22;;;;;;;13.65;2.40;;;;;;;11.19;100.00;101036.44;5139921;27;20047;-66
2023/10/07 02:22:50;;;;;;;11.77;2.35;;;;;;;11.26;100.00;101058.94;5129546;27;20503;-66
2023/10/07 02:25:26;;;;;;;14.10;2.95;;;;;;;11.31;100.00;101058.75;5132118;27;20552;-66
2023/10/07 02:27:54;;;;;;;15.95;2.85;;;;;;;11.10;100.00;101063.84;5128471;27;20412;-66
2023/10/07 02:30:24;;;;;;;16.10;3.60;;;;;;;11.04;100.00;101057.97;5144631;27;20417;-67
2023/10/07 02:32:51;;;;;;;13.43;2.72;;;;;;;11.05;100.00;101065.78;5137783;27;20468;-67
2023/10/07 02:35:19;;;;;;;24.73;4.00;;;;;;;11.08;100.00;101065.66;5150120;27;20496;-66
2023/10/07 02:37:50;;;;;;;13.07;3.20;;;;;;;11.00;100.00;101054.59;5124417;28;20051;-66
2023/10/07 02:40:22;;;;;;;20.27;4.38;;;;;;;11.04;100.00;101045.72;5123033;28;20044;-66
2023/10/07 02:42:52;;;;;;;14.57;2.83;;;;;;;11.08;100.00;101030.75;5128863;27;20047;-66
2023/10/07 02:47:53;;;;;;;23.48;3.08;;;;;;;11.12;100.00;101037.56;5132792;27;20049;-66
2023/10/07 02:50:21;;;;;;;12.48;3.38;;;;;;;11.18;100.00;101035.59;5127796;27;20043;-66
2023/10/07 02:52:47;;;;;;;17.30;4.15;;;;;;;11.01;100.00;101033.59;5143770;27;20047;-67
2023/10/07 02:57:55;;;;;;;18.08;3.45;;;;;;;11.16;100.00;101044.44;5136263;27;20092;-67
2023/10/07 03:00:38;;;;;;;15.07;4.15;;;;;;;11.09;100.00;101041.16;5118121;27;20051;-67
2023/10/07 03:06:06;;;;;;;20.77;3.72;;;;;;;10.93;100.00;101009.41;5135024;27;20046;-66
2023/10/07 03:08:40;;;;;;;17.05;3.33;;;;;;;10.85;100.00;101006.19;5131026;27;20427;-67
2023/10/07 03:11:11;;;;;;;20.70;3.95;;;;;;;10.93;100.00;101021.66;5144948;27;20047;-66
2023/10/07 03:13:45;;;;;;;12.80;3.22;;;;;;;10.94;100.00;101031.22;5141534;27;20054;-68
2023/10/07 03:19:45;;;;;;;;;;;;;;;11.08;100.00;101035.97;5131233;27;20564;-66
2023/10/07 03:22:09;;;;;;;11.90;3.05;;;;;;;10.97;100.00;101023.25;5128671;27;19930;-67
2023/10/07 03:24:38;;;;;;;20.17;3.17;;;;;;;10.99;100.00;101024.91;5121190;27;20078;-67
2023/10/07 03:27:11;;;;;;;20.85;3.35;;;;;;;10.98;100.00;101019.75;5134383;27;20054;-67
2023/10/07 03:29:57;;;;;;;19.67;3.60;;;;;;;10.87;100.00;101016.63;5131532;27;20066;-67
2023/10/07 03:32:24;;;;;;;18.00;3.20;;;;;;;10.90;100.00;101013.91;5146584;27;20054;-67
2023/10/07 03:34:51;;;;;;;14.13;2.85;;;;;;;10.89;100.00;101002.56;5144400;27;20464;-67
2023/10/07 03:37:18;;;;;;;19.70;3.53;;;;;;;10.86;100.00;101007.06;5135440;27;20059;-67
2023/10/07 03:39:56;;;;;;;22.60;3.50;;;;;;;10.80;100.00;100992.38;5141314;27;20099;-67
2023/10/07 03:42:23;;;;;;;18.13;3.55;;;;;;;10.81;100.00;100983.63;5137681;27;20047;-67
2023/10/07 03:44:50;;;;;;;12.32;3.08;;;;;;;10.95;100.00;100997.09;5135865;27;20137;-66
2023/10/07 03:47:17;;;;;;;16.98;2.95;;;;;;;10.82;100.00;101007.16;5152657;27;20363;-67
2023/10/07 03:49:52;;;;;;;19.58;4.05;;;;;;;10.79;100.00;101016.88;5132400;27;20100;-67
2023/10/07 03:52:20;;;;;;;15.82;3.33;;;;;;;10.68;100.00;100983.22;5143467;27;20050;-67
2023/10/07 03:54:48;;;;;;;21.60;3.47;;;;;;;10.79;100.00;101001.16;5136216;27;20481;-67
2023/10/07 03:57:18;;;;;;;17.20;3.95;;;;;;;10.79;100.00;101015.13;5130661;27;20050;-67
2023/10/07 03:59:46;;;;;;;20.63;3.60;;;;;;;10.71;100.00;100998.81;5124246;27;20096;-67
2023/10/07 04:05:00;;;;;;;16.92;3.30;;;;;;;10.74;100.00;100995.22;5138780;27;20042;-66
2023/10/07 04:07:29;;;;;;;21.92;4.35;;;;;;;10.62;100.00;100999.09;5129883;27;20051;-67
2023/10/07 04:10:13;;;;;;;11.88;2.92;;;;;;;10.70;100.00;101001.50;5135155;27;20163;-67
2023/10/07 04:12:40;;;;;;;11.85;2.50;;;;;;;10.62;100.00;100999.09;5146850;27;20079;-66
2023/10/07 04:15:12;;;;;;;15.00;3.65;;;;;;;10.78;100.00;101012.53;5128545;27;20058;-66
2023/10/07 04:17:39;;;;;;;12.93;2.75;;;;;;;10.72;100.00;101021.47;5124831;27;20061;-66
2023/10/07 04:20:21;;;;;;;15.18;3.42;;;;;;;10.70;100.00;101033.75;5115718;27;20059;-66
2023/10/07 04:23:00;;;;;;;14.57;3.03;;;;;;;10.83;100.00;101028.97;5140629;27;20042;-67
2023/10/07 04:25:29;;;;;;;13.48;3.55;;;;;;;10.84;100.00;101020.22;5120316;27;20096;-67
2023/10/07 04:27:57;;;;;;;16.40;3.47;;;;;;;10.78;100.00;101026.50;5128452;27;20558;-66
2023/10/07 04:30:38;;;;;;;13.82;3.50;;;;;;;10.70;100.00;101033.75;5126801;27;20484;-66
2023/10/07 04:33:08;;;;;;;14.10;3.20;;;;;;;10.76;100.00;101028.31;5131841;27;20537;-67
2023/10/07 04:35:35;;;;;;;21.88;3.85;;;;;;;10.68;100.00;101021.59;5131312;27;20135;-66
2023/10/07 04:38:28;;;;;;;18.55;3.33;;;;;;;10.57;100.00;101020.22;5132386;27;20054;-67
2023/10/07 04:44:21;;;;;;;18.05;3.13;;;;;;;10.70;100.00;101020.66;5062622;28;20289;-66
2023/10/07 04:46:57;;;;;;;13.02;3.00;;;;;;;10.66;100.00;101015.56;5067476;28;20067;-67
2023/10/07 04:49:36;;;;;;;13.55;3.03;;;;;;;10.67;100.00;101025.16;5101675;27;20053;-66
2023/10/07 04:52:07;;;;;;;20.98;3.90;;;;;;;10.60;100.00;101021.88;5141758;27;20084;-66
2023/10/07 04:54:35;;;;;;;19.30;3.50;;;;;;;10.66;100.00;101026.03;5116009;27;20455;-67
2023/10/07 04:57:09;;;;;;;15.68;3.70;;;;;;;10.61;100.00;101034.06;5129830;27;20230;-67
2023/10/07 04:59:45;;;;;;;15.60;3.55;;;;;;;10.67;100.00;101043.47;5135139;27;20560;-66
2023/10/07 05:02:15;;;;;;;19.88;4.05;;;;;;;10.62;100.00;101046.25;5121005;27;20447;-66
2023/10/07 05:04:49;;;;;;;17.92;4.70;;;;;;;10.64;100.00;101054.91;5143416;27;20074;-66
2023/10/07 05:07:24;;;;;;;21.38;4.10;;;;;;;10.58;100.00;101057.72;5130627;27;20047;-66
2023/10/07 05:09:51;;;;;;;17.88;4.38;;;;;;;10.60;100.00;101055.91;5135367;27;20047;-66
2023/10/07 05:12:20;;;;;;;19.77;3.65;;;;;;;10.48;100.00;101028.34;5132253;27;20046;-66
2023/10/07 05:14:47;;;;;;;12.25;2.90;;;;;;;10.71;100.00;101030.25;5149389;27;20050;-66
2023/10/07 05:17:14;;;;;;;25.30;3.60;;;;;;;10.60;100.00;101030.56;5122196;27;20051;-66
2023/10/07 05:19:41;;;;;;;23.30;4.43;;;;;;;10.47;100.00;101026.66;5124079;27;20058;-66
2023/10/07 05:22:18;;;;;;;16.35;4.10;;;;;;;10.45;100.00;101028.47;5131064;27;20078;-66
2023/10/07 05:24:47;;;;;;;18.60;3.20;;;;;;;10.55;100.00;101035.13;5129556;27;20096;-67
2023/10/07 05:27:15;;;;;;;23.33;3.65;;;;;;;10.49;100.00;101019.63;5150042;27;20137;-67
2023/10/07 05:29:43;;;;;;;14.32;2.88;;;;;;;10.44;100.00;101029.38;5121914;27;20050;-67
2023/10/07 05:32:11;;;;;;;19.13;3.40;;;;;;;10.39;100.00;101045.25;5130679;27;20035;-66
2023/10/07 05:34:37;;;;;;;17.35;5.13;;;;;;;10.26;100.00;101033.41;5130565;27;20071;-66
2023/10/07 05:37:11;;;;;;;17.13;3.42;;;;;;;10.51;100.00;101043.97;5126846;27;20058;-66
2023/10/07 05:39:41;;;;;;;13.75;3.63;;;;;;;10.36;100.00;101044.50;5128839;27;20039;-67
2023/10/07 05:42:11;;;;;;;14.55;3.25;;;;;;;10.38;100.00;101054.00;5129307;27;20039;-66
2023/10/07 05:44:39;;;;;;;16.52;3.40;;;;;;;10.42;100.00;101052.97;5129179;27;20730;-66
2023/10/07 05:47:08;;;;;;;22.90;2.90;;;;;;;10.29;100.00;101045.53;5129734;27;20493;-66
2023/10/07 05:49:37;;;;;;;18.33;4.15;;;;;;;10.21;100.00;101046.63;5129187;27;20043;-66
2023/10/07 05:52:05;;;;;;;16.17;4.00;;;;;;;10.25;100.00;101035.19;5127304;27;20047;-66
2023/10/07 05:54:31;;;;;;;18.08;3.00;;;;;;;10.25;100.00;101043.03;5124617;27;20047;-66
2023/10/07 05:56:59;;;;;;;20.08;3.97;;;;;;;10.25;100.00;101053.50;5129953;27;20464;-66
2023/10/07 05:59:33;;;;;;;16.17;3.25;;;;;;;10.25;100.00;101048.25;5129654;27;20065;-67
2023/10/07 06:02:05;;;;;;;19.45;3.53;;;;;;;10.25;100.00;101042.16;5130317;27;20401;-67
2023/10/07 06:04:34;;;;;;;14.95;3.30;;;;;;;10.44;100.00;101066.03;5129929;27;20071;-66
2023/10/07 06:07:00;;;;;;;16.70;3.88;;;;;;;10.35;100.00;101066.31;5137142;27;20085;-66
2023/10/07 06:09:28;;;;;;;14.93;2.85;;;;;;;10.35;100.00;101061.09;5122927;27;20047;-66
2023/10/07 06:11:59;;;;;;;14.98;3.30;;;;;;;10.29;100.00;101072.56;5136086;27;20065;-67
2023/10/07 06:14:26;;;;;;;16.48;3.40;;;;;;;10.23;100.00;101077.97;5130192;27;20058;-67
2023/10/07 06:16:52;;;;;;;17.85;3.90;;;;;;;10.24;100.00;101083.19;5132775;27;20047;-66
2023/10/07 06:19:22;;;;;;;15.32;3.88;;;;;;;10.27;100.00;101090.94;5129791;27;20085;-66
2023/10/07 06:21:52;;;;;;;15.82;3.53;;;;;;;10.22;100.00;101082.38;5122781;27;20046;-66
2023/10/07 06:24:23;;;;;;;18.02;3.20;;;;;;;10.24;100.00;101072.72;5129648;27;20046;-66
2023/10/07 06:26:53;;;;;;;11.70;2.70;;;;;;;10.23;100.00;101073.63;5129649;27;20714;-67
2023/10/07 06:29:20;;;;;;;12.18;3.20;;;;;;;10.26;100.00;101068.28;5132662;27;20094;-66
2023/10/07 06:31:55;;;;;;;12.18;2.75;;;;;;;10.18;100.00;101066.78;5134154;27;20080;-66
2023/10/07 06:34:32;;;;;;;19.92;5.65;;;;;;;10.20;100.00;101067.63;5134448;27;20125;-67
2023/10/07 06:36:59;;;;;;;14.13;3.13;;;;;;;10.14;100.00;101081.72;5131788;27;20500;-67
2023/10/07 06:39:28;;;;;;;17.77;3.30;;;;;;;10.11;100.00;101086.19;5130558;27;20055;-67
2023/10/07 06:41:55;;;;;;;17.10;3.75;;;;;;;10.19;100.00;101092.06;5126788;27;20040;-66
2023/10/07 06:44:24;;;;;;;25.73;4.40;;;;;;;10.17;100.00;101097.34;5128709;27;20134;-67
2023/10/07 06:47:02;;;;;;;24.27;5.18;;;;;;;10.15;100.00;101106.16;5126424;27;20532;-67
2023/10/07 06:49:34;;;;;;;16.55;3.33;;;;;;;10.18;100.00;101103.44;5128192;27;20073;-67
2023/10/07 06:52:03;;;;;;;13.73;3.22;;;;;;;10.12;100.00;101088.78;5126120;27;20047;-67
2023/10/07 06:54:32;;;;;;;14.40;3.15;;;;;;;10.06;100.00;101088.97;5130543;27;20046;-66
2023/10/07 06:57:01;;;;;;;17.38;2.95;;;;;;;10.14;100.00;101093.97;5133659;27;20133;-66
2023/10/07 06:59:28;;;;;;;11.75;2.65;;;;;;;10.06;100.00;101100.28;5134680;27;20115;-67
2023/10/07 07:02:11;;;;;;;14.38;2.67;;;;;;;9.95;100.00;101114.56;5139066;27;20100;-66
2023/10/07 07:04:41;;;;;;;13.32;3.03;;;;;;;9.84;100.00;101115.75;5133185;27;20054;-67
2023/10/07 07:07:11;;;;;;;14.73;2.97;;;;;;;9.68;100.00;101104.88;5126526;27;20057;-67
2023/10/07 07:09:50;;;;;;;11.73;2.03;;;;;;;9.88;100.00;101117.38;5130638;27;20044;-67
2023/10/07 07:12:21;;;;;;;9.85;2.30;;;;;;;9.92;100.00;101136.47;5129437;27;20565;-66
2023/10/07 07:14:59;;;;;;;8.90;2.08;;;;;;;9.80;100.00;101142.88;5126973;27;20043;-66
2023/10/07 07:17:29;;;;;;;11.85;2.55;;;;;;;9.69;100.00;101158.88;5122052;27;20151;-66
2023/10/07 07:22:42;;;;;;;10.02;2.25;;;;;;;9.96;100.00;101142.47;5130421;27;20058;-66
2023/10/07 07:25:10;;;;;;;13.45;2.20;;;;;;;9.93;100.00;101132.94;5124963;27;20386;-66
2023/10/07 07:27:44;;;;;;;11.57;3.20;;;;;;;9.80;100.00;101116.72;5126990;27;20047;-66
2023/10/07 07:30:19;;;;;;;9.88;2.78;;;;;;;9.80;100.00;101136.81;5121333;27;20569;-66
2023/10/07 07:32:55;;;;;;;9.35;2.45;;;;;;;9.74;100.00;101116.91;5128044;27;20496;-66
2023/10/07 07:35:37;;;;;;;11.35;2.50;;;;;;;9.65;100.00;101127.59;5120199;27;20504;-66
2023/10/07 07:38:25;;;;;;;11.82;2.08;;;;;;;9.64;100.00;101126.75;5114216;27;20477;-67
2023/10/07 07:41:06;;;;;;;9.38;2.05;;;;;;;9.61;100.00;101126.84;5116516;27;20100;-66
2023/10/07 07:43:37;;;;;;;9.90;2.33;;;;;;;9.61;100.00;101120.75;5112704;27;20055;-67
2023/10/07 07:46:18;;;;;;;8.88;2.28;;;;;;;9.62;100.00;101125.09;5125240;27;20059;-66
2023/10/07 07:48:51;;;;;;;13.18;2.67;;;;;;;9.72;100.00;101120.47;5116476;27;20055;-66
2023/10/07 07:51:18;;;;;;;10.82;2.25;;;;;;;9.75;100.00;101125.63;5120232;27;20484;-66
2023/10/07 07:53:45;;;;;;;13.40;2.60;;;;;;;9.58;100.00;101121.72;5118972;27;20416;-66
2023/10/07 07:56:15;;;;;;;10.82;2.78;;;;;;;9.50;100.00;101105.38;5113464;27;20047;-67
2023/10/07 07:58:47;;;;;;;16.10;2.70;;;;;;;9.42;100.00;101130.84;5123474;27;20046;-66
2023/10/07 08:01:18;;;;;;;8.95;2.35;;;;;;;9.66;100.00;101130.19;5129395;27;20463;-66
2023/10/07 08:03:44;;;;;;;10.38;2.05;;;;;;;9.76;100.00;101137.81;5119773;27;21257;-66
2023/10/07 08:06:14;;;;;;;9.00;1.98;;;;;;;9.67;100.00;101128.44;5123204;27;20055;-66
2023/10/07 08:08:41;;;;;;;7.97;2.40;;;;;;;9.73;100.00;101132.66;5129400;27;20082;-66
2023/10/07 08:11:07;;;;;;;7.43;2.03;;;;;;;9.79;100.00;101128.13;5126631;27;20062;-67
2023/10/07 08:13:35;;;;;;;10.80;2.45;;;;;;;9.67;100.00;101111.00;5126611;27;20042;-66
2023/10/07 08:16:06;;;;;;;7.80;1.80;;;;;;;9.73;100.00;101123.03;5124330;27;20526;-67
2023/10/07 08:18:33;;;;;;;14.43;2.58;;;;;;;9.79;100.00;101127.22;5123184;27;20043;-66
2023/10/07 08:21:16;;;;;;;13.38;2.20;;;;;;;9.70;100.00;101120.50;5121999;27;20052;-66
2023/10/07 08:23:51;;;;;;;9.02;2.33;;;;;;;9.61;100.00;101126.84;5120116;27;20381;-66
2023/10/07 08:26:22;;;;;;;8.30;1.92;;;;;;;9.81;100.00;101141.13;5124378;27;20095;-66
2023/10/07 08:28:59;;;;;;;11.70;2.55;;;;;;;9.84;100.00;101134.06;5129112;27;20058;-66
2023/10/07 08:31:43;;;;;;;16.88;2.90;;;;;;;9.54;100.00;101116.59;5113084;27;20105;-67
2023/10/07 08:34:10;;;;;;;12.00;2.72;;;;;;;9.50;100.00;101093.16;5130347;27;20134;-66
2023/10/07 08:36:43;;;;;;;11.18;2.05;;;;;;;9.62;100.00;101098.97;5131292;27;20465;-66
2023/10/07 08:39:16;;;;;;;11.00;2.30;;;;;;;9.58;100.00;101105.16;5119603;27;20500;-66
2023/10/07 08:41:52;;;;;;;10.73;1.98;;;;;;;9.68;100.00;101106.63;5129842;27;20047;-66
2023/10/07 08:44:21;;;;;;;13.63;2.78;;;;;;;9.71;100.00;101113.53;5126615;27;20043;-66
2023/10/07 08:46:49;;;;;;;14.13;2.50;;;;;;;9.75;100.00;101113.38;5130746;27;20450;-67
2023/10/07 08:49:16;;;;;;;8.50;2.25;;;;;;;9.74;100.00;101085.53;5123075;27;20047;-66
2023/10/07 08:51:44;;;;;;;11.30;2.83;;;;;;;9.81;100.00;101102.78;5128415;27;20388;-66
2023/10/07 08:54:17;;;;;;;10.63;2.58;;;;;;;9.81;100.00;101113.22;5117596;27;20049;-67
2023/10/07 08:56:52;;;;;;;14.32;2.70;;;;;;;9.70;100.00;101107.44;5135058;27;20039;-66
2023/10/07 08:59:22;;;;;;;12.38;2.85;;;;;;;9.88;100.00;101113.91;5119423;27;20393;-66
2023/10/07 09:04:35;;;;;;;8.02;2.15;;;;;;;9.80;100.00;101127.19;5125659;27;20397;-66
2023/10/07 09:07:08;;;;;;;9.18;2.40;;;;;;;9.79;100.00;101124.63;5122566;27;20108;-66
2023/10/07 09:09:43;;;;;;;8.57;2.30;;;;;;;9.75;100.00;101131.69;5125050;27;20065;-66
2023/10/07 09:12:14;;;;;;;7.85;1.73;;;;;;;9.78;100.00;101120.31;5127432;27;20047;-66
2023/10/07 09:14:51;;;;;;;9.07;2.20;;;;;;;9.72;100.00;101121.34;5123041;27;20071;-66
2023/10/07 09:17:23;;;;;;;8.38;2.38;;;;;;;9.63;100.00;101127.69;5124441;27;20430;-66
2023/10/07 09:19:58;;;;;;;11.23;2.20;;;;;;;9.43;100.00;101145.63;5123458;27;20047;-66
2023/10/07 09:22:33;;;;;;;11.43;1.90;;;;;;;9.44;100.00;101163.06;5122633;27;20632;-66
2023/10/07 09:25:28;;;;;;;7.00;2.17;;;;;;;9.37;100.00;101175.41;5120355;27;20075;-66
2023/10/07 09:28:01;;;;;;;6.35;1.60;;;;;;;9.32;100.00;101187.72;5129151;27;20059;-66
2023/10/07 09:30:35;;;;;;;9.73;3.08;;;;;;;9.45;100.00;101202.19;5126234;27;20042;-66
2023/10/07 09:33:06;;;;;;;8.15;1.98;;;;;;;9.37;100.00;101192.84;5110982;27;20139;-66
2023/10/07 09:35:35;;;;;;;10.48;2.28;;;;;;;9.43;100.00;101187.47;5118849;27;20204;-66
2023/10/07 09:38:02;;;;;;;5.78;1.60;;;;;;;9.45;100.00;101189.13;5128217;27;20411;-66
2023/10/07 09:43:26;;;;;;;9.00;2.35;;;;;;;9.46;100.00;101201.31;5129180;27;20047;-66
2023/10/07 09:45:53;;;;;;;8.65;2.05;;;;;;;9.57;100.00;101208.88;5127653;27;20057;-66
2023/10/07 09:48:23;;;;;;;12.35;2.00;;;;;;;9.61;100.00;101209.66;5121920;27;20187;-66
2023/10/07 09:50:55;;;;;;;7.18;1.98;;;;;;;9.53;100.00;101216.84;5116343;27;20050;-66
2023/10/07 09:53:36;;;;;;;19.65;7.85;;;;;;;9.64;100.00;101223.50;5119683;27;20126;-66
2023/10/07 09:56:32;;;;;;;28.98;12.98;;;;;;;9.78;100.00;101224.91;5113235;27;20512;-66
2023/10/07 09:59:13;;;;;;;30.88;14.00;;;;;;;9.75;100.00;101222.38;5110616;27;20097;-66
2023/10/07 10:02:24;;;;;;;15.05;5.60;;;;;;;9.74;100.00;101223.25;5117310;27;20404;-66
2023/10/07 10:05:11;;;;;;;15.95;7.10;;;;;;;9.73;100.00;101232.88;5123975;27;20051;-66
2023/10/07 10:08:11;;;;;;;14.80;3.97;;;;;;;9.71;100.00;101224.22;5125025;27;20514;-66
2023/10/07 10:10:44;;;;;;;13.60;2.85;;;;;;;9.54;100.00;101214.16;5107606;27;20134;-66
2023/10/07 10:16:14;;;;;;;11.93;3.03;;;;;;;9.64;100.00;101215.66;5120785;27;20451;-66
2023/10/07 10:18:50;;;;;;;9.80;3.05;;;;;;;9.58;100.00;101194.91;5120718;28;20603;-66
2023/10/07 10:21:23;;;;;;;9.55;2.67;;;;;;;9.73;100.00;101205.88;5118148;28;20139;-66
2023/10/07 10:23:55;;;;;;;14.32;2.65;;;;;;;9.63;100.00;101211.34;5117167;28;20541;-66
2023/10/07 10:26:23;;;;;;;12.85;2.38;;;;;;;9.70;100.00;101225.09;5118583;27;20043;-67
2023/10/07 10:29:15;;;;;;;10.77;3.13;;;;;;;9.67;100.00;101225.19;5125051;27;20040;-67
2023/10/07 10:31:58;;;;;;;10.15;2.97;;;;;;;9.69;100.00;101226.00;5120562;27;20079;-67
2023/10/07 10:34:26;;;;;;;9.15;2.75;;;;;;;9.64;100.00;101230.50;5129504;27;20147;-67
2023/10/07 10:36:56;;;;;;;10.13;2.35;;;;;;;9.74;100.00;101233.72;5119296;27;20601;-67
2023/10/07 10:39:26;;;;;;;8.85;2.55;;;;;;;9.68;100.00;101246.06;5115496;27;20051;-67
2023/10/07 10:42:00;;;;;;;9.23;2.78;;;;;;;9.81;100.00;101251.84;5112836;27;20055;-67
2023/10/07 10:44:38;;;;;;;11.73;2.35;;;;;;;9.73;100.00;101252.94;5124359;27;20049;-66
2023/10/07 10:47:07;;;;;;;12.18;3.60;;;;;;;9.79;100.00;101247.53;5132132;27;20480;-67
2023/10/07 10:49:35;;;;;;;9.13;2.20;;;;;;;9.81;100.00;101248.34;5127631;28;20043;-67
2023/10/07 10:52:02;;;;;;;8.95;2.38;;;;;;;9.64;100.00;101239.19;5119857;27;20461;-67
2023/10/07 10:54:29;;;;;;;6.82;2.30;;;;;;;9.85;100.00;101253.47;5126725;27;20055;-68
2023/10/07 10:56:58;;;;;;;9.13;1.90;;;;;;;9.71;100.00;101263.44;5111429;28;20406;-67
2023/10/07 10:59:48;;;;;;;8.93;2.47;;;;;;;9.68;100.00;101276.56;5113250;27;20054;-67
2023/10/07 11:02:20;;;;;;;27.73;15.55;;;;;;;9.63;100.00;101276.72;5115754;27;20596;-67
2023/10/07 11:04:50;;;;;;;25.30;11.73;;;;;;;9.71;100.00;101284.34;5126722;27;20039;-67
2023/10/07 11:07:18;;;;;;;18.10;9.18;;;;;;;9.74;100.00;101284.28;5127743;28;20051;-67
2023/10/07 11:09:51;;;;;;;13.77;5.95;;;;;;;9.80;100.00;101293.72;5123539;28;20063;-67
2023/10/07 11:12:22;;;;;;;9.90;3.22;;;;;;;9.94;100.00;101312.53;5128354;27;20067;-67
2023/10/07 11:15:00;;;;;;;9.82;2.67;;;;;;;9.86;100.00;101306.63;5131967;27;20051;-67
2023/10/07 11:17:27;;;;;;;8.63;2.75;;;;;;;9.93;100.00;101308.19;5120786;27;20055;-67
2023/10/07 11:19:54;;;;;;;7.63;2.00;;;;;;;9.92;100.00;101311.72;5129500;27;20079;-67
2023/10/07 11:22:22;;;;;;;8.68;2.40;;;;;;;9.81;100.00;101317.22;5132356;27;20450;-67
2023/10/07 11:24:50;;;;;;;8.25;2.88;;;;;;;9.72;100.00;101317.47;5126624;27;20051;-67
2023/10/07 11:27:18;;;;;;;8.43;2.95;;;;;;;9.59;100.00;101331.72;5130665;27;20039;-67
2023/10/07 11:29:56;;;;;;;9.73;2.47;;;;;;;9.56;100.00;101330.03;5115101;27;20063;-67
2023/10/07 11:32:29;;;;;;;6.35;2.20;;;;;;;9.55;100.00;101328.31;5131026;27;20598;-67
2023/10/07 11:34:59;;;;;;;9.40;2.53;;;;;;;9.66;100.00;101339.34;5129264;27;20051;-67
2023/10/07 11:37:27;;;;;;;10.43;2.22;;;;;;;9.56;100.00;101330.03;5129930;27;20096;-68
2023/10/07 11:39:54;;;;;;;9.68;2.05;;;;;;;9.71;100.00;101338.41;5131988;27;20166;-68
2023/10/07 11:42:22;;;;;;;8.10;2.20;;;;;;;9.86;100.00;101353.69;5131123;27;20130;-66
2023/10/07 11:44:55;;;;;;;9.48;2.28;;;;;;;9.86;100.00;101354.59;5129022;27;20421;-66
2023/10/07 11:47:24;;;;;;;11.50;2.80;;;;;;;9.62;100.00;101342.94;5120334;27;20100;-66
2023/10/07 11:49:51;;;;;;;7.93;2.13;;;;;;;9.74;100.00;101348.78;5121137;27;20139;-67
2023/10/07 11:52:19;;;;;;;10.55;2.75;;;;;;;9.80;100.00;101340.78;5121053;27;20070;-67
2023/10/07 11:54:46;;;;;;;11.77;2.40;;;;;;;9.89;100.00;101341.41;5130237;27;20046;-67
2023/10/07 11:57:14;;;;;;;8.93;2.85;;;;;;;9.79;100.00;101344.28;5130764;27;20043;-66
2023/10/07 11:59:41;;;;;;;12.93;3.10;;;;;;;9.69;100.00;101339.28;5120892;27;20404;-66
2023/10/07 12:02:12;;;;;;;9.02;2.28;;;;;;;9.71;100.00;101325.34;5128523;27;20136;-67
2023/10/07 12:04:40;;;;;;;7.47;2.10;;;;;;;9.77;100.00;101333.88;5120818;27;20043;-66
2023/10/07 12:07:14;;;;;;;12.25;3.05;;;;;;;9.62;100.00;101324.66;5124904;27;20051;-66
2023/10/07 12:09:43;;;;;;;7.65;2.83;;;;;;;9.91;100.00;101332.69;5131723;27;20047;-67
2023/10/07 12:12:11;;;;;;;13.20;3.53;;;;;;;9.94;100.00;101332.59;5126952;27;20047;-66
2023/10/07 12:14:38;;;;;;;10.60;2.85;;;;;;;9.83;100.00;101332.88;5118276;27;20040;-66
2023/10/07 12:17:05;;;;;;;14.07;3.00;;;;;;;9.93;100.00;101338.72;5121518;27;20051;-67
2023/10/07 12:19:32;;;;;;;8.57;2.45;;;;;;;9.95;100.00;101331.69;5128187;27;20506;-66
2023/10/07 12:21:59;;;;;;;10.27;2.75;;;;;;;9.98;100.00;101337.69;5125204;27;20055;-66